Cincinnati, Ohio
Traffic Map
Current Weather Conditions
Cincinnati, Ohio
Scattered Clouds Light Fog
Scattered Clouds
44°
Feels Like: 44°
Wind Chill: 44° Ceiling: Unl
Heat Index: 44° Visibility: 3mi
Dew Point: 44° Wind: 0mph
Humidity: 100% Direction: ° ()
Pressure: 30.24in Gusts: 0mph
Raw Report DataKLUK 191053Z 00000KT 3SM R21L/1600V2200FT BCFG BR SCT003 07/07 A3024 RMK AO2 SLP240 T00670067
Traffic Incident Summary
Active as of:
Severity:
Category:
InformationThere was an issue retrieving the traffic information for this location. Please try a different location or try again shortly.
Advertisements